Time;durP1;ratioP1;P1;durP2;ratioP2;P2;SDS_P1;SDS_P2;PMS_P1;PMS_P2;Temp;Humidity;BMP_temperature;BMP_pressure;BME280_temperature;BME280_humidity;BME280_pressure;Samples;Min_cycle;Max_cycle;Signal;HPM_P1;HPM_P2
2022/03/10 00:01:47;;;;;;;23.50;12.57;;;-0.10;99.90;;;;;;5029114;28;20045;-79
2022/03/10 00:04:13;;;;;;;25.75;13.77;;;-0.30;99.90;;;;;;5030322;28;20077;-79
2022/03/10 00:06:39;;;;;;;24.77;11.40;;;-0.30;99.90;;;;;;5029562;28;20045;-79
2022/03/10 00:09:04;;;;;;;21.77;12.18;;;-0.50;99.90;;;;;;5028969;28;20522;-80
2022/03/10 00:11:30;;;;;;;26.20;11.05;;;-0.60;99.90;;;;;;5029984;28;20077;-79
2022/03/10 00:13:55;;;;;;;28.00;13.77;;;-0.70;99.90;;;;;;5030568;28;20120;-79
2022/03/10 00:16:21;;;;;;;21.23;11.63;;;-0.60;99.90;;;;;;5030159;28;20049;-80
2022/03/10 00:18:47;;;;;;;24.27;11.93;;;-0.60;99.90;;;;;;5032654;28;20091;-79
2022/03/10 00:21:14;;;;;;;23.02;11.95;;;-0.70;99.90;;;;;;5033976;28;20041;-79
2022/03/10 00:23:39;;;;;;;26.58;12.77;;;-0.80;99.90;;;;;;5033985;28;20041;-79
2022/03/10 00:26:05;;;;;;;24.40;12.82;;;-0.80;99.90;;;;;;5034083;28;20516;-79
2022/03/10 00:28:31;;;;;;;26.70;11.98;;;-0.90;99.90;;;;;;5035187;28;20400;-79
2022/03/10 00:30:57;;;;;;;28.38;13.30;;;-0.90;99.90;;;;;;5033950;28;20370;-79
2022/03/10 00:33:23;;;;;;;22.13;12.18;;;-0.90;99.90;;;;;;5036265;28;20049;-79
2022/03/10 00:35:48;;;;;;;25.73;11.95;;;-1.00;99.90;;;;;;5036820;28;20052;-79
2022/03/10 00:38:14;;;;;;;20.80;11.77;;;-1.10;99.90;;;;;;5037212;28;20472;-79
2022/03/10 00:40:40;;;;;;;25.70;11.95;;;-1.20;99.90;;;;;;5037209;28;20056;-79
2022/03/10 00:43:13;;;;;;;23.92;11.77;;;-1.20;99.90;;;;;;5037041;28;20056;-81
2022/03/10 00:45:39;;;;;;;23.30;12.40;;;-1.20;99.90;;;;;;5036625;28;20503;-80
2022/03/10 00:48:06;;;;;;;22.00;11.70;;;-1.20;99.90;;;;;;5035504;28;20041;-80
2022/03/10 00:50:31;;;;;;;23.60;12.85;;;-1.20;99.90;;;;;;5037192;28;20073;-81
2022/03/10 00:52:57;;;;;;;24.08;13.45;;;-1.20;99.90;;;;;;5037049;28;20065;-80
2022/03/10 00:55:23;;;;;;;25.92;12.90;;;-1.30;99.90;;;;;;5036782;28;20042;-80
2022/03/10 00:57:49;;;;;;;28.15;13.13;;;-1.30;99.90;;;;;;5037079;28;20037;-80
2022/03/10 01:00:16;;;;;;;22.13;11.57;;;-1.40;99.90;;;;;;5037078;28;20121;-80
2022/03/10 01:02:42;;;;;;;24.05;13.23;;;-1.40;99.90;;;;;;5036404;28;20522;-80
2022/03/10 01:05:09;;;;;;;24.40;12.50;;;-1.40;99.90;;;;;;5036718;28;20081;-80
2022/03/10 01:07:35;;;;;;;28.67;15.68;;;-1.60;99.90;;;;;;5036501;28;20049;-81
2022/03/10 01:10:05;;;;;;;26.38;12.60;;;-1.70;99.90;;;;;;5036567;28;20404;-81
2022/03/10 01:12:31;;;;;;;26.08;14.57;;;-1.80;99.90;;;;;;5036875;28;20124;-81
2022/03/10 01:14:58;;;;;;;22.25;13.68;;;-2.10;99.90;;;;;;5036722;28;20049;-80
2022/03/10 01:17:23;;;;;;;26.25;13.77;;;-1.90;99.90;;;;;;5036237;28;20456;-81
2022/03/10 01:19:49;;;;;;;29.48;14.15;;;-2.00;99.90;;;;;;5036328;28;20060;-81
2022/03/10 01:22:15;;;;;;;26.92;13.77;;;-2.00;99.90;;;;;;5036440;28;20057;-80
2022/03/10 01:24:41;;;;;;;24.02;13.27;;;-2.10;99.90;;;;;;5036458;28;20038;-80
2022/03/10 01:27:08;;;;;;;27.90;14.52;;;-2.10;99.90;;;;;;5035994;28;20049;-80
2022/03/10 01:29:33;;;;;;;26.80;13.73;;;-2.10;99.90;;;;;;5036153;28;20061;-80
2022/03/10 01:31:59;;;;;;;28.80;14.85;;;-2.10;99.90;;;;;;5036504;28;20050;-80
2022/03/10 01:34:24;;;;;;;24.60;13.50;;;-2.10;99.90;;;;;;5036920;28;20041;-81
2022/03/10 01:36:50;;;;;;;34.53;15.75;;;-2.10;99.90;;;;;;5034590;28;20049;-81
2022/03/10 01:39:15;;;;;;;29.33;14.25;;;-2.10;99.90;;;;;;5035749;28;20131;-80
2022/03/10 01:41:41;;;;;;;24.58;13.65;;;-2.20;99.90;;;;;;5036635;28;20045;-80
2022/03/10 01:44:09;;;;;;;27.25;14.82;;;-2.10;99.90;;;;;;5036328;28;20041;-80
2022/03/10 01:46:36;;;;;;;27.08;13.10;;;-1.90;99.90;;;;;;5036400;28;20061;-81
2022/03/10 01:49:02;;;;;;;25.02;13.00;;;-1.30;99.90;;;;;;5036091;28;20053;-81
2022/03/10 01:51:29;;;;;;;21.13;12.00;;;-0.60;99.90;;;;;;5035880;28;20053;-80
2022/03/10 01:53:54;;;;;;;24.08;12.43;;;-0.30;99.90;;;;;;5035821;28;20095;-80
2022/03/10 01:56:21;;;;;;;24.92;12.35;;;-0.50;99.90;;;;;;5035903;28;20469;-81
2022/03/10 01:58:49;;;;;;;24.88;13.95;;;-0.60;99.90;;;;;;5035917;28;20100;-81
2022/03/10 02:01:16;;;;;;;23.83;13.23;;;-0.70;99.90;;;;;;5035698;28;20037;-80
2022/03/10 02:03:42;;;;;;;21.83;10.90;;;-0.90;99.90;;;;;;5036004;28;20388;-80
2022/03/10 02:06:09;;;;;;;27.55;12.52;;;-0.80;99.90;;;;;;5035723;28;20391;-80
2022/03/10 02:11:19;;;;;;;21.02;10.68;;;-0.50;99.90;;;;;;5035773;28;20136;-80
2022/03/10 02:13:45;;;;;;;21.92;10.90;;;0.10;99.90;;;;;;5035146;28;20085;-80
2022/03/10 02:18:56;;;;;;;21.48;11.20;;;0.00;99.90;;;;;;5034761;28;20546;-80
2022/03/10 02:21:22;;;;;;;19.83;10.85;;;0.30;99.90;;;;;;5035059;28;20053;-81
2022/03/10 02:23:48;;;;;;;25.40;12.95;;;0.00;99.90;;;;;;5035018;28;20483;-81
2022/03/10 02:26:14;;;;;;;21.67;11.23;;;-0.10;99.90;;;;;;5035342;28;20537;-81
2022/03/10 02:28:41;;;;;;;20.70;12.05;;;-0.50;99.90;;;;;;5033745;28;20049;-81
2022/03/10 02:31:07;;;;;;;22.50;11.77;;;-0.70;99.90;;;;;;5035220;28;20038;-80
2022/03/10 02:33:33;;;;;;;28.73;13.23;;;-0.80;99.90;;;;;;5035185;28;20049;-80
2022/03/10 02:35:59;;;;;;;24.77;12.88;;;-0.80;99.90;;;;;;5034691;28;20065;-80
2022/03/10 02:38:24;;;;;;;26.67;13.23;;;-0.80;99.90;;;;;;5034851;28;20120;-80
2022/03/10 02:40:50;;;;;;;25.40;12.70;;;-1.10;99.90;;;;;;5033863;28;20049;-81
2022/03/10 02:43:18;;;;;;;22.58;13.13;;;-1.30;99.90;;;;;;5043029;22;20060;-84
2022/03/10 02:45:45;;;;;;;25.50;13.35;;;-1.50;99.90;;;;;;4996394;28;20101;-84
2022/03/10 02:48:11;;;;;;;25.10;14.35;;;-1.60;99.90;;;;;;5010601;28;20094;-84
2022/03/10 02:50:37;;;;;;;29.70;13.00;;;-1.80;99.90;;;;;;5014065;28;20038;-84
2022/03/10 02:53:02;;;;;;;23.83;12.82;;;-1.80;99.90;;;;;;5015220;28;20088;-84
2022/03/10 02:55:28;;;;;;;23.70;13.70;;;-1.70;99.90;;;;;;5014360;28;20425;-84
2022/03/10 02:57:54;;;;;;;26.00;13.50;;;-1.80;99.90;;;;;;5014037;28;20042;-84
2022/03/10 03:00:26;;;;;;;31.38;13.32;;;-1.90;99.90;;;;;;5006092;28;20042;-86
2022/03/10 03:02:52;;;;;;;25.17;14.13;;;-2.00;99.90;;;;;;5002616;28;20038;-84
2022/03/10 03:05:17;;;;;;;27.75;13.10;;;-2.00;99.90;;;;;;5013720;28;20045;-84
2022/03/10 03:07:44;;;;;;;27.45;13.95;;;-2.10;99.90;;;;;;5014202;28;20046;-84
2022/03/10 03:10:10;;;;;;;27.48;12.80;;;-2.00;99.90;;;;;;5013452;28;20073;-84
2022/03/10 03:12:50;;;;;;;26.17;13.50;;;-1.90;99.90;;;;;;5015182;28;20034;-84
2022/03/10 03:15:17;;;;;;;31.23;14.43;;;-1.60;99.90;;;;;;5013408;28;20041;-84
2022/03/10 03:17:43;;;;;;;26.35;13.57;;;-1.70;99.90;;;;;;5003045;28;20150;-84
2022/03/10 03:20:14;;;;;;;26.27;14.32;;;-1.70;99.90;;;;;;4995170;28;20041;-84
2022/03/10 03:22:43;;;;;;;27.45;14.45;;;-1.80;99.90;;;;;;4993927;28;20050;-85
2022/03/10 03:25:10;;;;;;;25.35;12.90;;;-1.90;99.90;;;;;;4994234;28;20042;-85
2022/03/10 03:27:36;;;;;;;25.67;13.40;;;-1.70;99.90;;;;;;5005354;28;20129;-85
2022/03/10 03:30:04;;;;;;;26.10;13.68;;;-1.40;99.90;;;;;;5016579;28;20080;-85
2022/03/10 03:32:30;;;;;;;23.98;11.13;;;-1.20;99.90;;;;;;5014706;28;20042;-85
2022/03/10 03:34:56;;;;;;;25.13;12.30;;;-0.80;99.90;;;;;;5013117;28;20465;-85
2022/03/10 03:37:21;;;;;;;20.95;11.40;;;-0.50;99.90;;;;;;5013077;28;20046;-85
2022/03/10 03:39:47;;;;;;;22.58;11.45;;;-0.30;99.90;;;;;;5014826;28;20050;-85
2022/03/10 03:42:13;;;;;;;23.52;11.75;;;-0.30;99.90;;;;;;5014019;28;20513;-84
2022/03/10 03:44:38;;;;;;;23.60;11.93;;;-0.40;99.90;;;;;;5018883;28;20060;-85
2022/03/10 03:47:04;;;;;;;20.75;11.30;;;-0.50;99.90;;;;;;5014436;28;20057;-85
2022/03/10 03:49:30;;;;;;;23.83;11.48;;;-0.60;99.90;;;;;;5012981;28;20124;-85
2022/03/10 03:51:55;;;;;;;22.10;11.27;;;-0.70;99.90;;;;;;5014553;28;20124;-84
2022/03/10 03:54:21;;;;;;;23.98;12.00;;;-0.70;99.90;;;;;;5017455;28;20108;-85
2022/03/10 03:56:46;;;;;;;24.67;13.15;;;-0.60;99.90;;;;;;5016964;28;20046;-85
2022/03/10 03:59:12;;;;;;;25.95;12.43;;;-0.70;99.90;;;;;;5018453;28;20042;-85
2022/03/10 04:01:37;;;;;;;25.55;13.18;;;-0.90;99.90;;;;;;5016788;28;20049;-85
2022/03/10 04:04:03;;;;;;;25.38;12.98;;;-1.00;99.90;;;;;;4999433;28;20092;-85
2022/03/10 04:06:28;;;;;;;25.48;11.93;;;-1.20;99.90;;;;;;4998325;28;20042;-85
2022/03/10 04:08:54;;;;;;;22.83;12.35;;;-1.40;99.90;;;;;;4998893;28;20511;-85
2022/03/10 04:11:20;;;;;;;21.60;11.40;;;-1.60;99.90;;;;;;4998431;28;20045;-85
2022/03/10 04:13:45;;;;;;;19.63;10.63;;;-1.60;99.90;;;;;;4998858;28;20053;-85
2022/03/10 04:16:11;;;;;;;22.63;10.18;;;-1.40;99.90;;;;;;4998568;28;20519;-85
2022/03/10 04:18:36;;;;;;;18.17;10.02;;;-1.10;99.90;;;;;;4997286;28;20046;-84
2022/03/10 04:21:02;;;;;;;27.25;12.02;;;-1.20;99.90;;;;;;4996991;28;20078;-85
2022/03/10 04:23:28;;;;;;;27.73;11.40;;;-1.00;99.90;;;;;;4997132;28;20085;-85
2022/03/10 04:25:54;;;;;;;24.70;11.82;;;-0.90;99.90;;;;;;4998456;28;20150;-85
2022/03/10 04:28:20;;;;;;;19.42;11.00;;;-0.80;99.90;;;;;;4997274;28;20038;-85
2022/03/10 04:30:45;;;;;;;19.55;10.50;;;-1.00;99.90;;;;;;4998763;28;20093;-85
2022/03/10 04:33:11;;;;;;;23.70;12.88;;;-1.20;99.90;;;;;;4998634;28;20034;-84
2022/03/10 04:35:37;;;;;;;22.17;11.75;;;-1.40;99.90;;;;;;4998499;28;20117;-85
2022/03/10 04:38:03;;;;;;;21.58;11.77;;;-1.40;99.90;;;;;;4997332;28;20390;-85
2022/03/10 04:40:29;;;;;;;23.33;12.63;;;-1.40;99.90;;;;;;4981176;28;20374;-85
2022/03/10 04:42:54;;;;;;;33.45;13.70;;;-1.40;99.90;;;;;;5002726;28;20054;-85
2022/03/10 04:45:21;;;;;;;19.65;11.15;;;-1.60;99.90;;;;;;5004130;28;20054;-85
2022/03/10 04:47:46;;;;;;;21.15;11.75;;;-1.70;99.90;;;;;;5003413;28;20113;-85
2022/03/10 04:50:13;;;;;;;22.70;11.85;;;-1.70;99.90;;;;;;4997635;28;20509;-84
2022/03/10 04:52:40;;;;;;;22.35;12.18;;;-1.70;99.90;;;;;;4998462;28;20163;-85
2022/03/10 04:55:07;;;;;;;24.42;12.07;;;-1.70;99.90;;;;;;4997474;28;20038;-84
2022/03/10 04:57:34;;;;;;;24.30;11.88;;;-1.70;99.90;;;;;;4997517;28;20038;-85
2022/03/10 04:59:59;;;;;;;24.63;13.00;;;-1.80;99.90;;;;;;5002064;28;20041;-85
2022/03/10 05:02:25;;;;;;;23.42;11.65;;;-1.90;99.90;;;;;;5016414;28;20488;-84
2022/03/10 05:04:50;;;;;;;22.92;10.98;;;-1.90;99.90;;;;;;5008027;28;20046;-84
2022/03/10 05:07:16;;;;;;;23.95;12.05;;;-2.00;99.90;;;;;;5005509;28;20038;-84
2022/03/10 05:09:41;;;;;;;27.75;13.45;;;-2.00;99.90;;;;;;5005458;28;20046;-85
2022/03/10 05:12:07;;;;;;;30.75;12.50;;;-1.80;99.90;;;;;;5008429;28;20087;-84
2022/03/10 05:14:32;;;;;;;20.23;11.80;;;-1.70;99.90;;;;;;5009763;28;20121;-84
2022/03/10 05:16:58;;;;;;;22.73;13.00;;;-1.40;99.90;;;;;;5017143;28;20133;-84
2022/03/10 05:19:24;;;;;;;26.75;12.70;;;-1.50;99.90;;;;;;5015395;28;20042;-84
2022/03/10 05:21:50;;;;;;;22.98;10.52;;;-1.40;99.90;;;;;;5016920;28;20042;-84
2022/03/10 05:24:15;;;;;;;24.77;12.15;;;-1.40;99.90;;;;;;5016941;28;20077;-84
2022/03/10 05:26:41;;;;;;;25.08;11.50;;;-1.40;99.90;;;;;;5017126;28;20096;-84
2022/03/10 05:29:06;;;;;;;26.05;11.57;;;-1.60;99.90;;;;;;5015291;28;20042;-84
2022/03/10 05:31:32;;;;;;;23.02;11.90;;;-1.60;99.90;;;;;;5007354;28;20040;-85
2022/03/10 05:33:57;;;;;;;24.08;11.98;;;-1.60;99.90;;;;;;5014866;28;20132;-85
2022/03/10 05:36:23;;;;;;;22.60;12.25;;;-1.40;99.90;;;;;;5016824;28;20067;-84
2022/03/10 05:38:49;;;;;;;24.20;12.73;;;-1.30;99.90;;;;;;5016856;28;20092;-84
2022/03/10 05:41:14;;;;;;;24.65;13.52;;;-1.40;99.90;;;;;;5016891;28;20100;-84
2022/03/10 05:43:40;;;;;;;21.80;10.48;;;-1.40;99.90;;;;;;5012811;28;20062;-85
2022/03/10 05:46:06;;;;;;;22.60;11.88;;;-1.50;99.90;;;;;;5013487;28;20149;-85
2022/03/10 05:48:31;;;;;;;23.77;11.43;;;-1.40;99.90;;;;;;5014370;28;20403;-85
2022/03/10 05:50:58;;;;;;;21.92;11.35;;;-1.50;99.90;;;;;;5014929;28;20069;-84
2022/03/10 05:53:24;;;;;;;22.15;12.23;;;-1.50;99.90;;;;;;5014184;28;20088;-85
2022/03/10 05:55:50;;;;;;;27.42;13.40;;;-1.70;99.90;;;;;;5013211;28;20448;-85
2022/03/10 05:58:15;;;;;;;25.30;12.60;;;-1.70;99.90;;;;;;5014662;28;20054;-85
2022/03/10 06:00:41;;;;;;;23.17;11.25;;;-2.00;99.90;;;;;;5014975;28;20042;-85
2022/03/10 06:03:07;;;;;;;23.35;13.32;;;-1.60;99.90;;;;;;5011869;28;20050;-85
2022/03/10 06:05:33;;;;;;;24.20;11.35;;;-1.50;99.90;;;;;;5014810;28;20046;-85
2022/03/10 06:07:59;;;;;;;22.40;12.18;;;-1.60;99.90;;;;;;5016862;28;20038;-86
2022/03/10 06:10:24;;;;;;;28.38;13.48;;;-1.60;99.90;;;;;;5019207;28;20046;-84
2022/03/10 06:12:50;;;;;;;33.60;11.98;;;-1.50;99.90;;;;;;5014987;28;20092;-84
2022/03/10 06:15:16;;;;;;;25.20;11.80;;;-1.60;99.90;;;;;;4998208;28;20050;-84
2022/03/10 06:17:42;;;;;;;27.33;12.75;;;-1.60;99.90;;;;;;5017680;28;20048;-85
2022/03/10 06:20:08;;;;;;;22.80;13.23;;;-1.70;99.90;;;;;;5015150;28;20046;-86
2022/03/10 06:22:35;;;;;;;22.05;11.45;;;-1.70;99.90;;;;;;5015259;28;20053;-85
2022/03/10 06:25:00;;;;;;;23.58;12.13;;;-1.80;99.90;;;;;;5015513;28;20162;-85
2022/03/10 06:27:27;;;;;;;29.02;11.65;;;-1.90;99.90;;;;;;5015915;28;20088;-85
2022/03/10 06:29:53;;;;;;;25.85;12.73;;;-1.70;99.90;;;;;;4998910;28;20045;-86
2022/03/10 06:32:20;;;;;;;23.23;13.38;;;-1.60;99.90;;;;;;5004156;28;20051;-86
2022/03/10 06:34:47;;;;;;;25.27;12.90;;;-1.50;99.90;;;;;;5004887;28;20045;-86
2022/03/10 06:37:13;;;;;;;21.23;11.32;;;-1.40;99.90;;;;;;5005926;28;20054;-86
2022/03/10 06:39:39;;;;;;;24.58;12.35;;;-1.20;99.90;;;;;;5005129;28;20046;-85
2022/03/10 06:42:06;;;;;;;23.80;11.52;;;-1.10;99.90;;;;;;4997256;28;20397;-85
2022/03/10 06:44:32;;;;;;;23.67;11.52;;;-0.80;99.90;;;;;;4979108;28;20086;-85
2022/03/10 06:46:58;;;;;;;32.15;13.48;;;-0.60;99.90;;;;;;4995461;28;20116;-85
2022/03/10 06:49:23;;;;;;;20.10;10.60;;;-0.30;99.90;;;;;;4996535;28;20493;-85
2022/03/10 06:51:49;;;;;;;29.17;11.40;;;-0.20;99.90;;;;;;4995828;28;20450;-85
2022/03/10 06:54:16;;;;;;;25.77;12.40;;;0.00;99.90;;;;;;4994319;28;20050;-85
2022/03/10 06:56:42;;;;;;;25.73;12.35;;;0.10;99.90;;;;;;4994744;28;20101;-85
2022/03/10 06:59:07;;;;;;;20.52;11.63;;;0.20;99.90;;;;;;5003866;28;20095;-85
2022/03/10 07:01:33;;;;;;;22.25;10.55;;;0.40;99.90;;;;;;4995449;28;20465;-85
2022/03/10 07:03:59;;;;;;;22.15;12.13;;;0.70;99.90;;;;;;4994172;28;20096;-85
2022/03/10 07:06:25;;;;;;;25.67;11.57;;;0.80;99.90;;;;;;4993670;28;20143;-85
2022/03/10 07:08:51;;;;;;;20.60;10.40;;;0.80;99.90;;;;;;4994412;28;20513;-85
2022/03/10 07:11:17;;;;;;;24.63;10.38;;;1.00;99.90;;;;;;4996532;28;20049;-86
2022/03/10 07:13:44;;;;;;;21.75;10.88;;;1.10;99.90;;;;;;4993812;28;20069;-86
2022/03/10 07:16:09;;;;;;;22.65;9.93;;;1.20;99.90;;;;;;4992088;28;20572;-85
2022/03/10 07:18:35;;;;;;;19.40;10.43;;;1.20;99.90;;;;;;4993644;28;20082;-86
2022/03/10 07:21:02;;;;;;;22.67;10.48;;;1.40;99.90;;;;;;4994431;28;20117;-86
2022/03/10 07:23:28;;;;;;;20.55;9.70;;;1.50;99.90;;;;;;4975540;28;20081;-86
2022/03/10 07:25:54;;;;;;;22.20;10.70;;;1.70;99.90;;;;;;5003769;28;20554;-86
2022/03/10 07:28:19;;;;;;;19.30;10.80;;;1.90;99.90;;;;;;5012451;28;20098;-86
2022/03/10 07:30:45;;;;;;;23.10;10.02;;;2.00;99.90;;;;;;4994988;28;20056;-85
2022/03/10 07:33:11;;;;;;;20.50;10.88;;;2.00;99.90;;;;;;5011729;28;20046;-86
2022/03/10 07:35:36;;;;;;;19.40;11.50;;;2.10;99.90;;;;;;5012329;28;20073;-86
2022/03/10 07:38:03;;;;;;;19.42;10.60;;;2.30;99.90;;;;;;5010695;28;20049;-86
2022/03/10 07:40:29;;;;;;;22.45;11.95;;;2.40;99.90;;;;;;5012110;28;20403;-86
2022/03/10 07:42:54;;;;;;;22.77;10.77;;;2.50;99.90;;;;;;5011945;28;20058;-85
2022/03/10 07:45:20;;;;;;;17.17;9.32;;;2.60;99.90;;;;;;5010563;28;20054;-85
2022/03/10 07:47:46;;;;;;;24.02;10.60;;;2.80;99.90;;;;;;5011937;28;20037;-85
2022/03/10 07:50:11;;;;;;;21.33;10.48;;;3.00;99.90;;;;;;5010325;28;20456;-86
2022/03/10 07:52:37;;;;;;;25.45;10.05;;;3.10;99.90;;;;;;5011732;28;20045;-86
2022/03/10 07:55:05;;;;;;;21.15;11.95;;;3.20;99.90;;;;;;5010406;28;20052;-85
2022/03/10 07:57:30;;;;;;;21.95;10.35;;;3.20;99.90;;;;;;5011758;28;20089;-85
2022/03/10 07:59:56;;;;;;;17.73;10.63;;;3.30;99.90;;;;;;5011883;28;20648;-85
2022/03/10 08:02:22;;;;;;;17.75;9.95;;;3.50;99.90;;;;;;5012322;28;20057;-86
2022/03/10 08:04:48;;;;;;;22.00;12.13;;;3.50;99.90;;;;;;5012264;28;20041;-86
2022/03/10 08:07:13;;;;;;;22.30;10.82;;;3.50;99.90;;;;;;5017201;28;20045;-85
2022/03/10 08:09:39;;;;;;;19.13;9.60;;;3.70;99.90;;;;;;4997180;28;20047;-87
2022/03/10 08:12:05;;;;;;;17.25;10.32;;;4.00;99.90;;;;;;4996019;28;20046;-85
2022/03/10 08:14:37;;;;;;;23.95;11.13;;;4.10;99.90;;;;;;4993487;28;20101;-86
2022/03/10 08:17:09;;;;;;;19.30;10.82;;;4.30;99.90;;;;;;4992329;28;20556;-86
2022/03/10 08:19:35;;;;;;;32.72;11.63;;;5.00;99.90;;;;;;4994152;28;20066;-85
2022/03/10 08:22:00;;;;;;;21.35;11.88;;;4.40;99.90;;;;;;4995895;28;20046;-86
2022/03/10 08:24:28;;;;;;;18.30;9.35;;;4.60;99.90;;;;;;4999884;28;20080;-85
2022/03/10 08:26:54;;;;;;;19.17;10.95;;;5.00;99.90;;;;;;5013195;28;20056;-86
2022/03/10 08:29:20;;;;;;;18.88;10.52;;;4.70;99.90;;;;;;5011773;28;20445;-86
2022/03/10 08:31:45;;;;;;;21.70;10.48;;;4.80;99.90;;;;;;5011655;28;20046;-86
2022/03/10 08:34:11;;;;;;;20.17;11.32;;;4.90;99.90;;;;;;5011949;28;20473;-85
2022/03/10 08:36:36;;;;;;;24.23;11.10;;;5.00;99.90;;;;;;5010719;28;20074;-86
2022/03/10 08:39:02;;;;;;;19.83;11.02;;;5.20;99.90;;;;;;5012126;28;20038;-85
2022/03/10 08:41:28;;;;;;;21.33;11.82;;;5.20;99.90;;;;;;5014750;28;20079;-86
2022/03/10 08:43:53;;;;;;;21.15;10.60;;;5.40;99.90;;;;;;4995610;28;20046;-85
2022/03/10 08:46:19;;;;;;;17.00;10.00;;;5.40;99.90;;;;;;4994795;28;20076;-86
2022/03/10 08:48:46;;;;;;;17.75;10.40;;;5.50;99.90;;;;;;4993922;28;20126;-86
2022/03/10 08:51:11;;;;;;;23.45;10.50;;;5.60;99.90;;;;;;5007934;28;20049;-86
2022/03/10 08:53:37;;;;;;;20.58;12.35;;;5.80;99.90;;;;;;5015822;28;20436;-86
2022/03/10 08:56:04;;;;;;;19.45;10.82;;;5.80;99.90;;;;;;5014526;28;20038;-86
2022/03/10 08:58:30;;;;;;;18.85;11.38;;;5.90;99.90;;;;;;5014854;28;20065;-86
2022/03/10 09:00:55;;;;;;;20.42;11.63;;;6.10;99.90;;;;;;5014881;28;20493;-86
2022/03/10 09:03:21;;;;;;;20.70;10.57;;;6.00;99.90;;;;;;5016699;28;20048;-86
2022/03/10 09:05:47;;;;;;;17.95;10.48;;;6.20;99.60;;;;;;5017744;28;20046;-86
2022/03/10 09:08:15;;;;;;;21.00;10.32;;;6.30;99.80;;;;;;5016447;28;20459;-86
2022/03/10 09:10:50;;;;;;;21.30;11.27;;;6.40;99.90;;;;;;5020028;28;20051;-86
2022/03/10 09:13:22;;;;;;;20.35;10.85;;;6.40;99.90;;;;;;5018194;28;20046;-86
2022/03/10 09:15:48;;;;;;;17.30;10.00;;;6.50;97.60;;;;;;5024320;28;20041;-86
2022/03/10 09:18:14;;;;;;;20.75;10.70;;;6.70;96.60;;;;;;5023513;28;20044;-86
2022/03/10 09:20:40;;;;;;;19.50;12.00;;;6.80;98.40;;;;;;5018088;28;20046;-86
2022/03/10 09:23:06;;;;;;;19.65;11.68;;;6.90;96.70;;;;;;5015022;28;20042;-86
2022/03/10 09:25:31;;;;;;;23.10;11.57;;;7.10;95.20;;;;;;5015885;28;20038;-86
2022/03/10 09:27:57;;;;;;;33.05;10.05;;;7.10;95.70;;;;;;5001542;28;20049;-86
2022/03/10 09:30:23;;;;;;;18.80;9.93;;;7.40;92.10;;;;;;5017258;28;20072;-85
2022/03/10 09:32:48;;;;;;;18.88;10.43;;;7.50;92.80;;;;;;5014668;28;20049;-86
2022/03/10 09:35:17;;;;;;;17.95;11.52;;;7.60;86.20;;;;;;4997032;28;20033;-86
2022/03/10 09:37:43;;;;;;;20.77;9.70;;;7.90;81.50;;;;;;5014283;28;20061;-86
2022/03/10 09:40:09;;;;;;;22.80;10.45;;;8.00;79.60;;;;;;5012759;28;20054;-85
2022/03/10 09:42:36;;;;;;;19.42;11.57;;;8.20;80.90;;;;;;5013349;28;20099;-87
2022/03/10 09:45:07;;;;;;;18.48;10.88;;;8.30;78.90;;;;;;5014461;28;20080;-87
2022/03/10 09:47:34;;;;;;;19.70;10.80;;;8.40;83.10;;;;;;5014329;28;20034;-87
2022/03/10 09:50:03;;;;;;;18.25;10.73;;;8.40;80.30;;;;;;5013643;28;20040;-87
2022/03/10 09:52:29;;;;;;;18.02;10.93;;;8.60;78.10;;;;;;5013918;28;20544;-87
2022/03/10 09:54:54;;;;;;;18.67;9.75;;;8.90;77.00;;;;;;5010517;28;20467;-87
2022/03/10 09:57:22;;;;;;;21.05;10.50;;;9.30;72.50;;;;;;4993529;28;20042;-87
2022/03/10 09:59:53;;;;;;;18.65;10.73;;;9.60;72.50;;;;;;4988331;28;20046;-87
2022/03/10 10:02:19;;;;;;;15.38;8.93;;;9.80;64.90;;;;;;5012646;28;20041;-87
2022/03/10 10:04:46;;;;;;;22.00;11.80;;;10.00;64.10;;;;;;5013099;28;20456;-84
2022/03/10 10:07:12;;;;;;;16.85;10.77;;;10.30;64.70;;;;;;5012638;28;20080;-85
2022/03/10 10:09:42;;;;;;;20.48;11.45;;;10.60;59.10;;;;;;5013220;28;20070;-85
2022/03/10 10:12:09;;;;;;;17.75;10.45;;;10.50;58.30;;;;;;5012838;28;20053;-85
2022/03/10 10:14:43;;;;;;;19.77;10.32;;;10.70;55.70;;;;;;4995510;28;20550;-86
2022/03/10 10:17:10;;;;;;;17.60;11.52;;;10.80;54.60;;;;;;5011115;28;20073;-86
2022/03/10 10:19:37;;;;;;;18.90;11.35;;;10.90;53.70;;;;;;5012289;28;20108;-86
2022/03/10 10:22:16;;;;;;;15.70;10.27;;;10.90;53.40;;;;;;5012033;28;20491;-86
2022/03/10 10:25:08;;;;;;;19.98;10.43;;;11.00;54.40;;;;;;5011195;28;20093;-86
2022/03/10 10:27:34;;;;;;;16.48;10.35;;;11.30;50.70;;;;;;5008817;28;20115;-86
2022/03/10 10:30:06;;;;;;;19.60;10.13;;;11.40;50.30;;;;;;5011953;28;20050;-87
2022/03/10 10:32:43;;;;;;;18.85;11.40;;;11.60;46.20;;;;;;5010362;28;20046;-87
2022/03/10 10:35:15;;;;;;;18.63;10.45;;;11.60;47.40;;;;;;5012187;28;20074;-86
2022/03/10 10:37:44;;;;;;;16.17;10.07;;;11.50;44.90;;;;;;5010331;28;20049;-87
2022/03/10 10:40:18;;;;;;;18.40;10.80;;;11.80;45.80;;;;;;5002572;28;20064;-87
2022/03/10 10:42:43;;;;;;;16.33;9.35;;;11.90;44.60;;;;;;4991498;28;20051;-84
2022/03/10 10:45:33;;;;;;;16.95;11.05;;;12.10;44.70;;;;;;5008740;28;20057;-87
2022/03/10 10:48:10;;;;;;;17.92;10.93;;;12.10;41.60;;;;;;4992979;28;20057;-86
2022/03/10 10:50:39;;;;;;;17.80;10.63;;;12.10;41.30;;;;;;4992450;28;20397;-86
2022/03/10 10:53:05;;;;;;;19.05;10.98;;;12.20;43.10;;;;;;4991727;28;20054;-86
2022/03/10 10:55:41;;;;;;;16.85;11.50;;;12.30;40.60;;;;;;4995283;28;20054;-86
2022/03/10 10:58:08;;;;;;;17.88;11.35;;;12.30;39.30;;;;;;4995586;28;20052;-86
2022/03/10 11:00:45;;;;;;;22.15;11.20;;;12.50;39.50;;;;;;4995014;28;20113;-87
2022/03/10 11:03:36;;;;;;;18.48;10.77;;;12.50;38.10;;;;;;4995021;28;20092;-86
2022/03/10 11:06:02;;;;;;;15.02;9.82;;;12.70;39.20;;;;;;4995799;28;20363;-86
2022/03/10 11:08:30;;;;;;;20.08;10.95;;;12.80;34.40;;;;;;4995644;28;20046;-87
2022/03/10 11:10:56;;;;;;;19.05;11.38;;;12.80;35.90;;;;;;4995198;28;20109;-86
2022/03/10 11:13:22;;;;;;;17.70;11.20;;;12.90;35.30;;;;;;4993990;28;20054;-86
2022/03/10 11:15:50;;;;;;;19.50;11.93;;;13.10;32.60;;;;;;4994919;28;20050;-86
2022/03/10 11:18:16;;;;;;;14.88;10.48;;;13.30;33.50;;;;;;4993544;28;20061;-86
2022/03/10 11:20:47;;;;;;;17.05;10.52;;;13.60;33.50;;;;;;4995976;28;20042;-86
2022/03/10 11:23:43;;;;;;;16.45;10.85;;;13.70;29.80;;;;;;4993821;28;20050;-86
2022/03/10 11:26:12;;;;;;;15.75;10.25;;;13.90;28.30;;;;;;4995477;28;20111;-86
2022/03/10 11:28:44;;;;;;;16.50;11.05;;;13.90;28.80;;;;;;4995603;28;20046;-86
2022/03/10 11:31:11;;;;;;;21.17;11.43;;;13.70;27.80;;;;;;4995176;28;20052;-86
2022/03/10 11:33:38;;;;;;;19.05;11.52;;;13.90;27.20;;;;;;4995430;28;20046;-86
2022/03/10 11:36:23;;;;;;;16.45;9.65;;;13.80;27.70;;;;;;4999679;28;20065;-85
2022/03/10 11:39:03;;;;;;;19.55;11.65;;;14.10;27.40;;;;;;5014921;28;20073;-85
2022/03/10 11:41:43;;;;;;;16.15;10.45;;;14.00;26.70;;;;;;5016266;28;20061;-85
2022/03/10 11:44:09;;;;;;;18.73;11.43;;;14.10;27.90;;;;;;4998227;28;20046;-86
2022/03/10 11:46:36;;;;;;;18.85;11.45;;;14.00;27.50;;;;;;4975592;28;20069;-85
2022/03/10 11:49:12;;;;;;;19.63;11.55;;;14.10;28.50;;;;;;4992323;28;20092;-86
2022/03/10 11:51:45;;;;;;;18.05;12.32;;;14.40;27.80;;;;;;4991644;28;20054;-86
2022/03/10 11:54:14;;;;;;;18.90;12.18;;;14.60;29.10;;;;;;4991651;28;20050;-84
2022/03/10 11:56:43;;;;;;;17.60;10.50;;;14.50;27.10;;;;;;4995189;28;20042;-84
2022/03/10 11:59:23;;;;;;;25.30;11.40;;;14.60;25.80;;;;;;4995581;28;20153;-84
2022/03/10 12:01:48;;;;;;;17.70;11.13;;;14.50;24.40;;;;;;4994149;28;20054;-84
2022/03/10 12:04:20;;;;;;;24.25;12.48;;;14.80;25.20;;;;;;4995782;28;20097;-84
2022/03/10 12:06:57;;;;;;;17.50;12.02;;;15.00;25.50;;;;;;4995590;28;20042;-85
2022/03/10 12:09:31;;;;;;;17.25;11.02;;;15.10;26.40;;;;;;4994054;28;20501;-85
2022/03/10 12:12:20;;;;;;;26.58;13.25;;;15.10;27.20;;;;;;4995808;28;20042;-85
2022/03/10 12:14:47;;;;;;;22.02;11.88;;;15.10;24.90;;;;;;4997644;28;20053;-84
2022/03/10 12:17:49;;;;;;;21.27;12.70;;;14.90;25.40;;;;;;4998615;28;20404;-86
2022/03/10 12:20:38;;;;;;;17.27;10.55;;;14.80;25.40;;;;;;4997256;28;20481;-85
2022/03/10 12:23:03;;;;;;;17.05;11.40;;;14.80;26.00;;;;;;4997766;28;20097;-86
2022/03/10 12:25:30;;;;;;;18.92;12.40;;;14.70;24.90;;;;;;4999090;28;20038;-85
2022/03/10 12:27:57;;;;;;;18.23;11.95;;;15.10;26.10;;;;;;4998436;28;20064;-85
2022/03/10 12:30:27;;;;;;;19.25;11.55;;;15.50;24.80;;;;;;4999346;28;20050;-86
2022/03/10 12:32:56;;;;;;;18.85;12.13;;;15.30;25.00;;;;;;4999555;28;20053;-86
2022/03/10 12:35:30;;;;;;;21.17;11.98;;;15.60;25.90;;;;;;5000024;28;20114;-86
2022/03/10 12:37:56;;;;;;;17.52;11.77;;;15.60;23.60;;;;;;5000590;28;20050;-85